Force, PA (15841)

4:14 PM EDT on July 30, 2014 (GMT -0400)
Emerald Estates (KPASAINT3) Elev 1870 ft | 41.43 °N, 78.60 °W | Change Station
Active Advisory: Special Statement

Current weather conditions updated 5 seconds ago

Rain
Rain
55.8 °F
Feels Like 55.8 °F
N
0.0
Wind Variable Wind from North
Gusts 1.0 mph

Tomorrow is forecast to be Much Warmer than today. A few morning showers.

Today
High -- | Low -- °F
--% Chance of Precip.
Yesterday
High -- | Low -- °F
Precip. -- in
6:07 AM 8:32 PM
Waxing Crescent, 13% visible
Pressure 30.01 in
Visibility 10.0 miles
Clouds Few 3700 ft
Dew Point 54 °F
Humidity 92%
Rainfall 0.23 in
Snow Depth Not available.
UV 7 out of 12
Pollen 5.90 out of 12
Air Quality Not available.
Flu Activity Not available.
METAR KFIG 301954Z AUTO 21011G19KT 10SM FEW037 22/13 A3001 RMK AO2 LTG DSNT W-N SLP161 T02170133

More Conditions Fewer Conditions

Pressure 30.01 in
Visibility 10.0 miles
Clouds Few 3700 ft
Dew Point 54 °F
Humidity 92%
Rainfall 0.23 in
Snow Depth Not available.
UV 7 out of 12
Pollen 5.90 out of 12
Air Quality Not available.
Flu Activity Not available.
METAR KFIG 301954Z AUTO 21011G19KT 10SM FEW037 22/13 A3001 RMK AO2 LTG DSNT W-N SLP161 T02170133

More Conditions Fewer Conditions

10-Day Weather Forecast

Almanac

Astronomy

Jul. 30, 2014 Rise Set
Actual Time 6:07 AM EDT 8:32 PM EDT
Civil Twilight 5:36 AM EDT 9:04 PM EDT
Nautical Twilight 4:57 AM EDT 9:42 PM EDT
Astronomical Twilight 4:13 AM EDT 10:25 PM EDT
Moon 9:40 AM EDT 10:11 PM EDT
Length of Visible Light 15h 27m
Length of Day
14h 25m
Tomorrow will be 2m 2s shorter.
Waxing Crescent, 13% of the Moon is Illuminated
Today
Waxing Crescent
Aug 3
First Quarter
Aug 10
Full
Aug 17
Last Quarter
Aug 25
New

Today's Extremes

State Highs State Lows

Community

WunderPhotos

Upload Photos

1,739,178 photos uploaded!

WunderBlogs® & News

Nearby

Snow Depth

Station Depth Elevation
No new snow has been reported.

Earthquake Activity

City Distance Mag. Time & Date
No recent earthquake activity has been reported nearby.
Minimum magnitude displayed is 2.5.

Coastal Water Temperatures

Place Temperature
No Stations Reporting

Nearby Weather Stations

Station Location Temp. Heat Index Dew Point Humidity Wind Precip. Elev Updated Type
Emerald Estates, Saint Marys, PA 55.8 °F - 54 °F 92% North  at  0.0 mph 0.11 in / hr 1870 ft 4:14 PM EDT Rapid Fire
Holly Terrace, Falls Creek, PA 58.8 °F - 58 °F 97% WNW  at  13.0 mph 0.30 in / hr 1473 ft 4:14 PM EDT Rapid Fire
Sterling Run, Driftwood, PA 71.6 °F 74 °F 61 °F 70% West  at  3.5 mph 0.00 in / hr 932 ft 4:14 PM EDT Rapid Fire
Sylvan Heights, Emporium, PA 62.7 °F - 61 °F 93% NE  at  0.0 mph 0.13 in / hr 1166 ft 4:14 PM EDT Rapid Fire

Show More Stations Show Fewer Stations